createdAt,value
2023-05-21T00:00:54.131Z,43.60
2023-05-21T00:03:24.267Z,43.70
2023-05-21T00:05:52.488Z,43.60
2023-05-21T00:08:20.628Z,43.50
2023-05-21T00:10:48.940Z,43.50
2023-05-21T00:13:17.139Z,43.50
2023-05-21T00:15:45.556Z,43.50
2023-05-21T00:18:13.750Z,43.50
2023-05-21T00:20:43.245Z,43.50
2023-05-21T00:23:11.396Z,43.50
2023-05-21T00:25:39.520Z,43.50
2023-05-21T00:28:07.820Z,43.40
2023-05-21T00:30:35.950Z,43.50
2023-05-21T00:33:04.257Z,43.40
2023-05-21T00:35:32.405Z,43.40
2023-05-21T00:38:02.265Z,43.40
2023-05-21T00:40:30.206Z,43.40
2023-05-21T00:42:58.330Z,43.40
2023-05-21T00:45:26.466Z,43.40
2023-05-21T00:47:55.641Z,43.40
2023-05-21T00:50:24.365Z,43.40
2023-05-21T00:52:52.551Z,43.40
2023-05-21T00:55:22.350Z,43.40
2023-05-21T00:57:50.593Z,43.40
2023-05-21T01:00:18.829Z,43.40
2023-05-21T01:02:47.985Z,43.40
2023-05-21T01:05:16.280Z,43.40
2023-05-21T01:07:44.542Z,43.40
2023-05-21T01:10:13.579Z,43.40
2023-05-21T01:12:45.347Z,43.50
2023-05-21T01:15:14.231Z,43.40
2023-05-21T01:17:46.189Z,43.40
2023-05-21T01:20:18.132Z,43.40
2023-05-21T01:22:52.988Z,43.40
2023-05-21T01:25:21.227Z,43.40
2023-05-21T01:27:49.454Z,43.50
2023-05-21T01:30:19.271Z,43.40
2023-05-21T01:32:50.416Z,43.40
2023-05-21T01:35:23.325Z,43.40
2023-05-21T01:37:57.538Z,43.40
2023-05-21T01:40:40.992Z,43.40
2023-05-21T01:43:10.562Z,43.40
2023-05-21T01:45:41.794Z,43.40
2023-05-21T01:48:11.427Z,43.50
2023-05-21T01:50:41.698Z,43.40
2023-05-21T01:53:11.194Z,43.50
2023-05-21T01:55:42.038Z,43.50
2023-05-21T01:58:10.554Z,43.40
2023-05-21T02:00:40.097Z,43.40
2023-05-21T02:03:08.796Z,43.40
2023-05-21T02:05:37.493Z,43.50
2023-05-21T02:08:08.410Z,43.40
2023-05-21T02:10:37.990Z,43.50
2023-05-21T02:13:06.116Z,43.40
2023-05-21T02:15:35.302Z,43.50
2023-05-21T02:18:04.443Z,43.50
2023-05-21T02:20:32.903Z,43.50
2023-05-21T02:23:01.036Z,43.50
2023-05-21T02:25:29.208Z,43.50
2023-05-21T02:27:58.716Z,43.50
2023-05-21T02:30:26.942Z,43.50
2023-05-21T02:32:58.747Z,43.60
2023-05-21T02:35:27.037Z,43.60
2023-05-21T02:37:59.005Z,43.50
2023-05-21T02:40:27.133Z,43.60
2023-05-21T02:42:55.289Z,43.50
2023-05-21T02:45:24.805Z,43.60
2023-05-21T02:47:52.987Z,43.60
2023-05-21T02:50:22.778Z,43.60
2023-05-21T02:52:51.066Z,43.50
2023-05-21T02:55:19.171Z,43.50
2023-05-21T02:57:47.312Z,43.60
2023-05-21T03:00:16.424Z,43.60
2023-05-21T03:02:46.154Z,43.70
2023-05-21T03:05:14.179Z,43.60
2023-05-21T03:07:43.742Z,43.60
2023-05-21T03:10:12.261Z,43.60
2023-05-21T03:12:40.368Z,43.60
2023-05-21T03:15:09.520Z,43.70
2023-05-21T03:17:37.749Z,43.60
2023-05-21T03:20:08.890Z,43.60
2023-05-21T03:22:37.588Z,43.70
2023-05-21T03:25:06.198Z,43.70
2023-05-21T03:27:34.295Z,43.70
2023-05-21T03:30:02.473Z,43.70
2023-05-21T03:32:30.629Z,43.60
2023-05-21T03:34:58.890Z,43.70
2023-05-21T03:37:28.365Z,43.70
2023-05-21T03:39:56.568Z,43.70
2023-05-21T03:42:24.660Z,43.70
2023-05-21T03:44:52.787Z,43.70
2023-05-21T03:47:21.008Z,43.70
2023-05-21T03:49:49.207Z,43.70
2023-05-21T03:52:17.322Z,43.70
2023-05-21T03:54:46.798Z,43.70
2023-05-21T03:57:14.941Z,43.70
2023-05-21T03:59:43.081Z,43.70
2023-05-21T04:02:11.308Z,43.70
2023-05-21T04:04:39.493Z,43.70
2023-05-21T04:07:14.680Z,43.70
2023-05-21T04:09:43.177Z,43.70
2023-05-21T04:12:12.802Z,43.70
2023-05-21T04:14:40.989Z,43.70
2023-05-21T04:17:09.153Z,43.60
2023-05-21T04:19:37.349Z,43.70
2023-05-21T04:22:06.100Z,43.70
2023-05-21T04:24:34.212Z,43.60
2023-05-21T04:27:02.388Z,43.70
2023-05-21T04:29:31.883Z,43.70
2023-05-21T04:32:00.155Z,43.70
2023-05-21T04:34:28.297Z,43.70
2023-05-21T04:36:56.967Z,43.70
2023-05-21T04:39:25.161Z,43.60
2023-05-21T04:41:54.655Z,43.60
2023-05-21T04:44:23.302Z,43.60
2023-05-21T04:46:52.971Z,43.50
2023-05-21T04:49:22.076Z,43.60
2023-05-21T04:51:50.459Z,43.50
2023-05-21T04:54:18.613Z,43.50
2023-05-21T04:56:47.447Z,43.50
2023-05-21T04:59:16.022Z,43.40
2023-05-21T05:01:44.152Z,43.50
2023-05-21T05:04:13.702Z,43.30
2023-05-21T05:06:41.850Z,43.30
2023-05-21T05:09:10.055Z,43.30
2023-05-21T05:11:38.168Z,43.20
2023-05-21T05:14:06.541Z,43.10
2023-05-21T05:16:35.718Z,43.00
2023-05-21T05:19:04.221Z,43.20
2023-05-21T05:21:33.809Z,43.10
2023-05-21T05:24:02.296Z,44.30
2023-05-21T05:26:30.558Z,45.40
2023-05-21T05:28:58.677Z,45.80
2023-05-21T05:31:27.250Z,46.10
2023-05-21T05:33:55.368Z,47.40
2023-05-21T05:36:24.278Z,47.10
2023-05-21T05:38:53.887Z,47.20
2023-05-21T05:41:22.739Z,47.10
2023-05-21T05:43:50.934Z,47.50
2023-05-21T05:46:19.173Z,47.70
2023-05-21T05:48:47.535Z,47.80
2023-05-21T05:51:17.211Z,47.60
2023-05-21T05:53:45.328Z,47.60
2023-05-21T05:56:17.150Z,47.90
2023-05-21T05:58:45.313Z,47.90
2023-05-21T06:01:13.588Z,47.90
2023-05-21T06:03:42.044Z,47.90
2023-05-21T06:06:10.310Z,48.00
2023-05-21T06:08:40.654Z,48.60
2023-05-21T06:11:08.816Z,48.50
2023-05-21T06:13:38.389Z,48.30
2023-05-21T06:16:07.637Z,48.40
2023-05-21T06:18:35.892Z,48.60
2023-05-21T06:21:04.087Z,48.50
2023-05-21T06:23:33.167Z,48.50
2023-05-21T06:26:01.280Z,48.60
2023-05-21T06:28:29.394Z,48.50
2023-05-21T06:30:58.871Z,48.50
2023-05-21T06:33:27.565Z,48.40
2023-05-21T06:35:56.540Z,48.30
2023-05-21T06:38:24.654Z,48.30
2023-05-21T06:40:52.785Z,48.20
2023-05-21T06:43:20.986Z,48.10
2023-05-21T06:45:49.245Z,48.10
2023-05-21T06:48:18.772Z,48.10
2023-05-21T06:50:46.906Z,48.30
2023-05-21T06:53:16.454Z,48.20
2023-05-21T06:55:45.487Z,48.20
2023-05-21T06:58:13.622Z,48.20
2023-05-21T07:00:41.816Z,48.20
2023-05-21T07:03:10.016Z,48.00
2023-05-21T07:05:39.951Z,48.00
2023-05-21T07:08:08.607Z,48.00
2023-05-21T07:10:37.797Z,48.00
2023-05-21T07:13:06.027Z,47.80
2023-05-21T07:15:34.499Z,48.00
2023-05-21T07:18:03.570Z,47.80
2023-05-21T07:20:31.736Z,47.60
2023-05-21T07:23:01.214Z,47.40
2023-05-21T07:25:29.356Z,47.50
2023-05-21T07:27:57.500Z,47.50
2023-05-21T07:30:25.654Z,47.30
2023-05-21T07:32:53.784Z,47.20
2023-05-21T07:35:22.186Z,47.30
2023-05-21T07:37:50.330Z,47.20
2023-05-21T07:40:19.877Z,47.30
2023-05-21T07:42:48.097Z,47.10
2023-05-21T07:45:16.266Z,47.00
2023-05-21T07:47:46.100Z,47.50
2023-05-21T07:50:15.895Z,47.00
2023-05-21T07:52:43.842Z,46.70
2023-05-21T07:55:12.026Z,46.80
2023-05-21T07:57:41.769Z,46.70
2023-05-21T08:00:11.002Z,46.60
2023-05-21T08:02:39.244Z,46.60
2023-05-21T08:05:08.189Z,46.60
2023-05-21T08:07:36.481Z,47.20
2023-05-21T08:10:05.125Z,47.00
2023-05-21T08:12:33.703Z,46.80
2023-05-21T08:15:03.199Z,46.40
2023-05-21T08:17:31.318Z,46.70
2023-05-21T08:19:59.438Z,46.50
2023-05-21T08:22:27.638Z,46.50
2023-05-21T08:24:55.794Z,46.30
2023-05-21T08:27:23.953Z,46.40
2023-05-21T08:29:52.516Z,46.40
2023-05-21T08:32:22.172Z,46.20
2023-05-21T08:34:50.132Z,46.00
2023-05-21T08:37:18.451Z,46.10
2023-05-21T08:39:46.568Z,45.60
2023-05-21T08:42:36.476Z,45.90
2023-05-21T08:45:07.779Z,45.60
2023-05-21T08:47:38.117Z,45.50
2023-05-21T08:50:09.763Z,61.50
2023-05-21T08:52:37.884Z,44.90
2023-05-21T08:55:06.744Z,44.20
2023-05-21T08:57:35.277Z,44.00
2023-05-21T09:00:04.904Z,43.30
2023-05-21T09:02:34.841Z,42.80
2023-05-21T09:05:05.686Z,42.30
2023-05-21T09:07:40.680Z,42.00
2023-05-21T09:10:13.238Z,41.90
2023-05-21T09:12:41.520Z,41.70
2023-05-21T09:15:10.205Z,41.30
2023-05-21T09:17:38.420Z,40.80
2023-05-21T09:22:44.729Z,39.10
2023-05-21T09:25:15.038Z,39.30
2023-05-21T09:30:12.961Z,39.40
2023-05-21T09:32:41.386Z,69.10
2023-05-21T09:35:12.824Z,39.00
2023-05-21T09:40:14.009Z,38.70
2023-05-21T09:45:11.388Z,55.50
2023-05-21T09:47:44.535Z,40.20
2023-05-21T09:50:14.765Z,38.40
2023-05-21T09:57:44.965Z,71.50
2023-05-21T10:00:20.164Z,62.20
2023-05-21T10:02:49.083Z,38.60
2023-05-21T10:05:19.037Z,38.10
2023-05-21T10:07:51.436Z,38.10
2023-05-21T10:10:21.560Z,37.20
2023-05-21T10:12:53.136Z,37.70
2023-05-21T10:15:25.457Z,37.90
2023-05-21T10:17:55.699Z,37.50
2023-05-21T10:20:25.825Z,37.00
2023-05-21T10:22:54.816Z,36.80
2023-05-21T10:25:24.137Z,36.40
2023-05-21T10:27:52.594Z,35.70
2023-05-21T10:30:23.083Z,35.90
2023-05-21T10:32:51.574Z,35.70
2023-05-21T10:35:20.150Z,35.90
2023-05-21T10:37:52.200Z,35.80
2023-05-21T10:40:20.407Z,35.40
2023-05-21T10:43:09.958Z,34.70
2023-05-21T10:45:52.444Z,34.40
2023-05-21T10:48:34.544Z,34.30
2023-05-21T10:51:17.610Z,34.50
2023-05-21T10:54:03.639Z,34.70
2023-05-21T10:56:39.313Z,35.10
2023-05-21T10:59:18.318Z,35.20
2023-05-21T11:01:46.683Z,35.20
2023-05-21T11:04:15.794Z,35.40
2023-05-21T11:06:48.638Z,35.10
2023-05-21T11:09:18.162Z,35.10
2023-05-21T11:11:48.638Z,35.80
2023-05-21T11:14:35.685Z,35.60
2023-05-21T11:17:05.061Z,34.50
2023-05-21T11:19:40.686Z,34.10
2023-05-21T11:22:22.429Z,34.40
2023-05-21T11:24:52.727Z,34.80
2023-05-21T11:27:37.439Z,34.10
2023-05-21T11:30:08.125Z,33.50
2023-05-21T11:32:39.703Z,33.70
2023-05-21T11:35:08.883Z,33.60
2023-05-21T11:37:40.681Z,32.40
2023-05-21T11:40:27.272Z,32.20
2023-05-21T11:42:56.730Z,33.00
2023-05-21T11:45:29.415Z,33.70
2023-05-21T11:47:57.733Z,34.20
2023-05-21T11:50:27.334Z,34.30
2023-05-21T11:52:56.050Z,34.40
2023-05-21T11:55:26.202Z,34.10
2023-05-21T11:57:55.654Z,33.90
2023-05-21T12:00:24.421Z,33.50
2023-05-21T12:02:54.356Z,33.40
2023-05-21T12:05:23.353Z,33.50
2023-05-21T12:07:51.561Z,33.70
2023-05-21T12:10:23.035Z,33.80
2023-05-21T12:12:56.383Z,34.00
2023-05-21T12:15:27.075Z,33.50
2023-05-21T12:17:56.881Z,32.10
2023-05-21T12:20:28.205Z,33.40
2023-05-21T12:22:58.832Z,34.00
2023-05-21T12:25:27.509Z,34.40
2023-05-21T12:27:58.593Z,34.90
2023-05-21T12:30:27.585Z,35.40
2023-05-21T12:32:59.716Z,35.60
2023-05-21T12:35:27.990Z,35.50
2023-05-21T12:40:37.471Z,40.60
2023-05-21T12:43:07.559Z,36.00
2023-05-21T12:45:36.778Z,35.50
2023-05-21T12:48:04.910Z,35.70
2023-05-21T12:50:35.590Z,35.10
2023-05-21T12:53:04.083Z,35.10
2023-05-21T12:55:32.994Z,35.40
2023-05-21T12:58:08.163Z,34.90
2023-05-21T13:00:38.342Z,33.90
2023-05-21T13:03:07.368Z,32.70
2023-05-21T13:05:36.037Z,32.60
2023-05-21T13:08:04.359Z,32.70
2023-05-21T13:10:32.455Z,32.00
2023-05-21T13:13:00.609Z,31.70
2023-05-21T13:15:28.760Z,32.00
2023-05-21T13:18:01.122Z,32.00
2023-05-21T13:20:29.656Z,31.90
2023-05-21T13:22:57.777Z,32.00
2023-05-21T13:25:28.957Z,32.00
2023-05-21T13:27:58.641Z,31.90
2023-05-21T13:30:26.917Z,31.80
2023-05-21T13:32:55.626Z,32.00
2023-05-21T13:35:25.257Z,32.00
2023-05-21T13:37:53.394Z,31.70
2023-05-21T13:40:21.547Z,31.50
2023-05-21T13:42:50.597Z,31.30
2023-05-21T13:45:20.965Z,31.10
2023-05-21T13:47:49.634Z,31.10
2023-05-21T13:50:17.654Z,30.90
2023-05-21T13:52:47.362Z,30.90
2023-05-21T13:55:16.845Z,30.60
2023-05-21T13:57:45.838Z,30.70
2023-05-21T14:00:16.108Z,30.80
2023-05-21T14:02:45.317Z,30.90
2023-05-21T14:05:14.032Z,30.80
2023-05-21T14:07:42.801Z,30.90
2023-05-21T14:10:13.376Z,30.90
2023-05-21T14:12:42.214Z,31.00
2023-05-21T14:15:11.989Z,31.20
2023-05-21T14:17:42.422Z,31.20
2023-05-21T14:20:11.398Z,31.10
2023-05-21T14:22:39.812Z,31.00
2023-05-21T14:25:08.517Z,31.00
2023-05-21T14:27:38.832Z,31.20
2023-05-21T14:30:08.036Z,31.10
2023-05-21T14:32:36.263Z,31.20
2023-05-21T14:35:05.295Z,31.30
2023-05-21T14:37:33.555Z,31.10
2023-05-21T14:40:01.717Z,31.20
2023-05-21T14:42:30.633Z,31.30
2023-05-21T14:45:16.919Z,31.50
2023-05-21T14:47:47.797Z,31.70
2023-05-21T14:50:17.727Z,31.60
2023-05-21T14:52:46.086Z,31.70
2023-05-21T14:55:16.640Z,31.80
2023-05-21T14:57:45.123Z,31.80
2023-05-21T15:00:15.597Z,32.00
2023-05-21T15:02:43.881Z,32.10
2023-05-21T15:05:12.114Z,32.30
2023-05-21T15:07:40.261Z,32.40
2023-05-21T15:10:09.930Z,32.50
2023-05-21T15:12:38.035Z,32.60
2023-05-21T15:15:07.282Z,32.70
2023-05-21T15:17:37.313Z,32.60
2023-05-21T15:20:06.531Z,32.70
2023-05-21T15:22:35.267Z,32.60
2023-05-21T15:25:03.842Z,32.70
2023-05-21T15:27:31.950Z,32.70
2023-05-21T15:30:00.523Z,32.60
2023-05-21T15:32:28.746Z,32.60
2023-05-21T15:34:58.493Z,32.50
2023-05-21T15:37:27.478Z,32.40
2023-05-21T15:39:55.600Z,32.30
2023-05-21T15:42:23.716Z,32.30
2023-05-21T15:44:51.835Z,32.20
2023-05-21T15:47:20.076Z,32.20
2023-05-21T15:49:48.200Z,32.20
2023-05-21T15:52:19.806Z,32.20
2023-05-21T15:54:47.950Z,32.20
2023-05-21T15:57:16.151Z,32.20
2023-05-21T15:59:44.280Z,32.20
2023-05-21T16:02:12.389Z,32.30
2023-05-21T16:04:40.481Z,32.20
2023-05-21T16:07:08.694Z,32.40
2023-05-21T16:09:38.625Z,32.50
2023-05-21T16:12:07.557Z,32.40
2023-05-21T16:14:35.652Z,32.50
2023-05-21T16:17:03.958Z,32.50
2023-05-21T16:19:32.250Z,32.60
2023-05-21T16:22:02.222Z,32.60
2023-05-21T16:24:30.331Z,32.60
2023-05-21T16:26:59.816Z,31.10
2023-05-21T16:29:27.916Z,31.10
2023-05-21T16:31:56.111Z,31.50
2023-05-21T16:34:24.256Z,31.60
2023-05-21T16:36:52.785Z,31.70
2023-05-21T16:39:20.977Z,32.30
2023-05-21T16:41:49.094Z,32.50
2023-05-21T16:44:20.169Z,31.70
2023-05-21T16:46:48.312Z,32.10
2023-05-21T16:49:16.439Z,32.30
2023-05-21T16:51:44.536Z,32.30
2023-05-21T16:54:12.709Z,32.20
2023-05-21T16:56:40.799Z,32.20
2023-05-21T16:59:09.436Z,32.20
2023-05-21T17:01:39.058Z,32.20
2023-05-21T17:04:07.297Z,32.20
2023-05-21T17:06:35.453Z,32.20
2023-05-21T17:09:04.051Z,32.20
2023-05-21T17:11:32.326Z,32.20
2023-05-21T17:14:00.530Z,31.60
2023-05-21T17:16:28.687Z,31.90
2023-05-21T17:18:58.264Z,32.90
2023-05-21T17:21:27.405Z,33.20
2023-05-21T17:23:55.508Z,33.40
2023-05-21T17:26:23.624Z,33.70
2023-05-21T17:28:51.723Z,34.30
2023-05-21T17:31:19.980Z,34.70
2023-05-21T17:33:48.078Z,34.70
2023-05-21T17:36:17.567Z,34.80
2023-05-21T17:38:45.670Z,35.20
2023-05-21T17:41:14.850Z,35.50
2023-05-21T17:43:42.773Z,35.80
2023-05-21T17:46:10.931Z,36.20
2023-05-21T17:48:39.019Z,36.40
2023-05-21T17:51:07.140Z,36.40
2023-05-21T17:53:36.639Z,36.50
2023-05-21T17:56:04.886Z,36.70
2023-05-21T17:58:33.031Z,37.00
2023-05-21T18:01:01.288Z,37.10
2023-05-21T18:03:29.464Z,37.20
2023-05-21T18:05:57.661Z,37.40
2023-05-21T18:08:25.831Z,37.70
2023-05-21T18:10:55.302Z,36.20
2023-05-21T18:13:23.412Z,55.00
2023-05-21T18:18:21.631Z,61.90
2023-05-21T18:20:50.201Z,38.60
2023-05-21T18:23:18.559Z,39.40
2023-05-21T18:28:16.454Z,38.80
2023-05-21T18:33:15.324Z,39.10
2023-05-21T18:35:44.577Z,40.00
2023-05-21T18:38:12.808Z,41.10
2023-05-21T18:40:41.002Z,40.90
2023-05-21T18:43:10.871Z,40.90
2023-05-21T18:45:40.583Z,40.90
2023-05-21T18:48:08.741Z,40.90
2023-05-21T18:50:38.410Z,40.80
2023-05-21T18:53:07.019Z,40.90
2023-05-21T18:55:36.310Z,40.80
2023-05-21T18:58:04.431Z,40.90
2023-05-21T19:00:34.146Z,40.80
2023-05-21T19:03:03.834Z,40.80
2023-05-21T19:05:32.011Z,41.00
2023-05-21T19:08:00.130Z,40.90
2023-05-21T19:10:28.256Z,40.90
2023-05-21T19:12:57.301Z,41.10
2023-05-21T19:15:25.537Z,41.00
2023-05-21T19:17:53.770Z,41.10
2023-05-21T19:20:27.173Z,41.10
2023-05-21T19:22:55.617Z,41.20
2023-05-21T19:25:24.041Z,41.30
2023-05-21T19:27:52.850Z,41.30
2023-05-21T19:30:21.035Z,41.40
2023-05-21T19:32:49.196Z,41.40
2023-05-21T19:35:17.529Z,41.40
2023-05-21T19:37:47.016Z,41.60
2023-05-21T19:40:17.678Z,41.50
2023-05-21T19:42:45.991Z,41.70
2023-05-21T19:45:15.578Z,41.70
2023-05-21T19:47:44.570Z,41.70
2023-05-21T19:50:12.960Z,41.90
2023-05-21T19:52:41.102Z,42.00
2023-05-21T19:55:11.195Z,42.10
2023-05-21T19:57:39.793Z,42.10
2023-05-21T20:00:10.368Z,42.10
2023-05-21T20:02:38.596Z,42.20
2023-05-21T20:05:07.718Z,42.20
2023-05-21T20:07:35.926Z,42.20
2023-05-21T20:10:04.209Z,42.30
2023-05-21T20:12:33.718Z,42.90
2023-05-21T20:15:01.922Z,42.40
2023-05-21T20:17:30.526Z,42.40
2023-05-21T20:20:00.467Z,42.50
2023-05-21T20:22:28.657Z,42.40
2023-05-21T20:24:57.769Z,42.50
2023-05-21T20:27:26.152Z,42.50
2023-05-21T20:29:55.658Z,42.50
2023-05-21T20:32:23.779Z,43.00
2023-05-21T20:35:02.849Z,43.70
2023-05-21T20:37:32.457Z,45.20
2023-05-21T20:40:00.629Z,45.40
2023-05-21T20:42:34.753Z,46.10
2023-05-21T20:45:04.911Z,46.70
2023-05-21T20:47:33.985Z,46.90
2023-05-21T20:50:03.282Z,47.20
2023-05-21T20:52:31.599Z,47.90
2023-05-21T20:55:00.143Z,48.00
2023-05-21T20:57:28.608Z,48.50
2023-05-21T20:59:56.947Z,48.70
2023-05-21T21:02:27.008Z,49.20
2023-05-21T21:04:56.308Z,50.10
2023-05-21T21:07:24.466Z,49.80
2023-05-21T21:09:52.580Z,50.30
2023-05-21T21:12:26.467Z,50.40
2023-05-21T21:14:55.208Z,50.60
2023-05-21T21:17:23.429Z,50.90
2023-05-21T21:19:52.906Z,51.30
2023-05-21T21:22:21.558Z,51.20
2023-05-21T21:24:49.716Z,51.70
2023-05-21T21:27:17.861Z,51.90
2023-05-21T21:29:46.700Z,51.70
2023-05-21T21:32:14.906Z,51.70
2023-05-21T21:34:43.063Z,51.90
2023-05-21T21:37:13.615Z,52.30
2023-05-21T21:39:41.817Z,52.50
2023-05-21T21:42:10.016Z,52.50
2023-05-21T21:44:39.250Z,52.60
2023-05-21T21:47:07.505Z,52.50
2023-05-21T21:49:35.688Z,52.30
2023-05-21T21:52:03.865Z,52.00
2023-05-21T21:54:33.406Z,51.90
2023-05-21T21:57:01.509Z,51.70
2023-05-21T21:59:29.642Z,51.60
2023-05-21T22:01:57.844Z,51.60
2023-05-21T22:04:26.038Z,51.50
2023-05-21T22:06:54.478Z,51.40
2023-05-21T22:09:23.217Z,51.40
2023-05-21T22:11:53.388Z,51.30
2023-05-21T22:14:21.540Z,51.30
2023-05-21T22:16:53.152Z,51.20
2023-05-21T22:19:22.101Z,51.30
2023-05-21T22:21:50.385Z,51.60
2023-05-21T22:24:31.448Z,51.60
2023-05-21T22:27:02.659Z,51.60
2023-05-21T22:29:30.575Z,51.50
2023-05-21T22:31:58.739Z,51.40
2023-05-21T22:34:26.872Z,51.30
2023-05-21T22:36:55.004Z,51.20
2023-05-21T22:39:23.131Z,51.10
2023-05-21T22:41:51.519Z,51.10
2023-05-21T22:44:21.159Z,49.90
2023-05-21T22:46:49.461Z,50.20
2023-05-21T22:49:17.704Z,50.40
2023-05-21T22:51:46.389Z,50.40
2023-05-21T22:54:14.615Z,50.30
2023-05-21T22:56:43.265Z,50.30
2023-05-21T22:59:11.406Z,50.20
2023-05-21T23:01:40.937Z,50.20
2023-05-21T23:04:08.890Z,50.10
2023-05-21T23:06:36.996Z,50.10
2023-05-21T23:09:05.238Z,50.00
2023-05-21T23:11:33.455Z,50.00
2023-05-21T23:14:01.654Z,50.00
2023-05-21T23:16:30.823Z,49.90
2023-05-21T23:19:01.247Z,49.90
2023-05-21T23:21:29.668Z,49.80
2023-05-21T23:23:57.824Z,49.80
2023-05-21T23:26:26.641Z,49.60
2023-05-21T23:28:54.752Z,49.60
2023-05-21T23:31:22.949Z,49.50
2023-05-21T23:33:52.252Z,49.50
2023-05-21T23:36:22.090Z,49.50
2023-05-21T23:38:50.193Z,49.50
2023-05-21T23:41:18.369Z,49.50
2023-05-21T23:43:46.473Z,49.40
2023-05-21T23:46:14.662Z,49.60
2023-05-21T23:48:42.826Z,49.50
2023-05-21T23:51:10.963Z,49.40
2023-05-21T23:53:40.423Z,49.40
2023-05-21T23:56:08.713Z,49.30
2023-05-21T23:58:37.028Z,49.30
